Maria — SV7156 — position and weather

sailwx.info

Track history (hours):
 
Tides and Currents Weather Stations Pressure Air Temp Water Temp Dewpoint Dewpoint Depression Visibility Wind Speed Wind Dir Waves Ship Positions

Maria

Last reported at 2017-Apr-26 05:05 UTC. Time now 2017-Apr-26 06:07 UTC.
Position N 37°58' E 023°35'.

Length 74 m; draft 4.5 m.

Type: Ship. MMSI: 237493000.

Date/timePositionNaut miles runAvg speedWind from/ knotsBaromVisibWave heightAir tempDewpointWater temp
2017-Apr-26 05:05N 37°58' E 023°35'0 0.6
2017-Apr-26 05:00N 37°58' E 023°35'3 6.5
2017-Apr-26 04:30N 37°54' E 023°34'3 7.0
2017-Apr-26 04:00N 37°51' E 023°32'0 0.2
2017-Apr-26 03:30N 37°51' E 023°32'0 0.1
2017-Apr-26 03:00N 37°51' E 023°32'0 0.1
2017-Apr-26 02:30N 37°51' E 023°32'0 0.1
2017-Apr-26 02:00N 37°51' E 023°32'0 0.1
2017-Apr-26 01:30N 37°51' E 023°32'0 0.1
2017-Apr-26 01:00N 37°51' E 023°32'0 0.0
2017-Apr-26 00:30N 37°51' E 023°32'0 0.0
2017-Apr-26 00:00N 37°51' E 023°32'0 0.0
2017-Apr-25 23:30N 37°51' E 023°32'0 0.0
2017-Apr-25 23:00N 37°51' E 023°32'0 0.0
2017-Apr-25 22:30N 37°51' E 023°32'0 0.0
2017-Apr-25 22:00N 37°51' E 023°32'0 0.0
2017-Apr-25 21:30N 37°51' E 023°32'0 0.0
2017-Apr-25 21:00N 37°51' E 023°32'0 0.0
2017-Apr-25 20:30N 37°51' E 023°32'0 0.0
2017-Apr-25 20:00N 37°51' E 023°32'0 0.0
2017-Apr-25 19:30N 37°51' E 023°32'0 0.0
2017-Apr-25 19:00N 37°51' E 023°32'0 0.0
2017-Apr-25 18:30N 37°51' E 023°32'0 0.0
2017-Apr-25 18:00N 37°51' E 023°32'0 0.0
2017-Apr-25 17:30N 37°51' E 023°32'0 0.0
2017-Apr-25 17:00N 37°51' E 023°32'0 0.0
2017-Apr-25 16:30N 37°51' E 023°32'0 0.0
2017-Apr-25 16:00N 37°51' E 023°32'1 1.9
2017-Apr-25 15:31N 37°52' E 023°32'2 5.0
2017-Apr-25 15:00N 37°55' E 023°33'3 5.4
2017-Apr-25 14:30N 37°57' E 023°35'  
2017-Apr-22 05:07N 37°58' E 023°35'0 0.4
2017-Apr-22 05:00N 37°58' E 023°35'2 3.9
2017-Apr-22 04:30N 37°59' E 023°33'3 5.9
2017-Apr-22 04:01N 38°01' E 023°35'1 1.4
2017-Apr-22 03:28N 38°02' E 023°36'0 0.0
2017-Apr-22 03:00N 38°02' E 023°36'0 0.0
2017-Apr-22 02:30N 38°02' E 023°36'0 0.0
2017-Apr-22 02:00N 38°02' E 023°36'0 0.0
2017-Apr-22 01:28N 38°02' E 023°36'0 0.0
2017-Apr-22 01:00N 38°02' E 023°36'0 0.0
2017-Apr-22 00:30N 38°02' E 023°36'0 0.0
2017-Apr-22 00:00N 38°02' E 023°36'0 0.0
2017-Apr-21 23:30N 38°02' E 023°36'0 0.0
2017-Apr-21 23:00N 38°02' E 023°36'0 0.0
2017-Apr-21 22:30N 38°02' E 023°36'0 0.0
2017-Apr-21 22:00N 38°02' E 023°36'0 0.0
2017-Apr-21 21:30N 38°02' E 023°36'1 1.4
2017-Apr-21 21:00N 38°02' E 023°35'0 0.0
2017-Apr-21 20:31N 38°02' E 023°35'0 0.0
2017-Apr-21 20:01N 38°02' E 023°35'0 0.0
2017-Apr-21 19:31N 38°02' E 023°35'0 0.0
2017-Apr-21 19:01N 38°02' E 023°35'0 0.0
2017-Apr-21 18:31N 38°02' E 023°35'0 0.0
2017-Apr-21 18:01N 38°02' E 023°35'0 0.1
2017-Apr-21 17:31N 38°02' E 023°35'0 0.0
2017-Apr-21 17:00N 38°02' E 023°35'0 0.0
2017-Apr-21 16:31N 38°02' E 023°35'0 0.0
2017-Apr-21 16:01N 38°02' E 023°35'0 0.1
2017-Apr-21 15:31N 38°02' E 023°35'0 0.0
2017-Apr-21 15:00N 38°02' E 023°35'0 0.1
2017-Apr-21 14:30N 38°02' E 023°35'4 4.3
2017-Apr-21 13:31N 37°57' E 023°34'1 0.1
2017-Apr-21 01:48N 37°58' E 023°35'1 3.2
2017-Apr-21 01:30N 37°57' E 023°36'1 1.6
2017-Apr-21 01:00N 37°58' E 023°36'0 0.0
2017-Apr-21 00:30N 37°58' E 023°36'0 0.0
2017-Apr-21 00:00N 37°58' E 023°36'0 0.0
2017-Apr-20 23:30N 37°58' E 023°36'0 0.0
2017-Apr-20 23:00N 37°58' E 023°36'0 0.0
2017-Apr-20 22:30N 37°58' E 023°36'0 0.0
2017-Apr-20 22:00N 37°58' E 023°36'0 0.0
2017-Apr-20 21:30N 37°58' E 023°36'0 0.0
2017-Apr-20 21:00N 37°58' E 023°36'0 0.0
2017-Apr-20 20:30N 37°58' E 023°36'0 0.0
2017-Apr-20 20:00N 37°58' E 023°36'0 0.0
2017-Apr-20 19:30N 37°58' E 023°36'0 0.1
2017-Apr-20 19:00N 37°58' E 023°36'1 2.7
2017-Apr-20 18:30N 37°57' E 023°35'0 0.0
2017-Apr-20 08:51N 37°58' E 023°35'0 0.2
2017-Apr-20 08:30N 37°58' E 023°35'0 0.0
2017-Apr-20 08:00N 37°58' E 023°35'0 0.0
2017-Apr-20 07:30N 37°58' E 023°35'0 0.0
2017-Apr-20 07:00N 37°58' E 023°35'0 0.0
2017-Apr-20 06:30N 37°58' E 023°35'0 0.0
2017-Apr-20 06:00N 37°58' E 023°35'0 0.0
2017-Apr-20 05:30N 37°58' E 023°35'2 3.0
2017-Apr-20 05:00N 37°58' E 023°33'3 6.7
2017-Apr-20 04:30N 38°01' E 023°34'1 1.3
2017-Apr-20 04:00N 38°02' E 023°35'0 0.1
2017-Apr-20 03:30N 38°02' E 023°35'0 0.1
2017-Apr-20 03:00N 38°02' E 023°35'0 0.1
2017-Apr-20 02:30N 38°02' E 023°35'0 0.0
2017-Apr-20 02:00N 38°02' E 023°35'0 0.0
2017-Apr-20 01:30N 38°02' E 023°35'0 0.0
2017-Apr-20 01:00N 38°02' E 023°35'0 0.0
2017-Apr-20 00:30N 38°02' E 023°35'0 0.1
2017-Apr-20 00:00N 38°02' E 023°35'0 0.0
2017-Apr-19 23:30N 38°02' E 023°35'0 0.1
2017-Apr-19 23:00N 38°02' E 023°35'0 0.0
2017-Apr-19 22:30N 38°02' E 023°35'0 0.1
2017-Apr-19 22:00N 38°02' E 023°35'0 0.0
2017-Apr-19 21:30N 38°02' E 023°35'0 0.0
2017-Apr-19 21:00N 38°02' E 023°35'0 0.1
2017-Apr-19 20:30N 38°02' E 023°35'0 0.1
2017-Apr-19 20:00N 38°02' E 023°35'1 1.7
2017-Apr-19 19:30N 38°02' E 023°36'0 0.0
2017-Apr-19 19:00N 38°02' E 023°36'0 0.0
2017-Apr-19 18:30N 38°02' E 023°36'0 0.0
2017-Apr-19 18:00N 38°02' E 023°36'0 0.0
2017-Apr-19 17:30N 38°02' E 023°36'0 0.0
2017-Apr-19 17:01N 38°02' E 023°36'0 0.0
2017-Apr-19 16:31N 38°02' E 023°36'0 0.0
2017-Apr-19 16:00N 38°02' E 023°36'0 0.2
2017-Apr-19 15:30N 38°02' E 023°36'3 5.4
2017-Apr-19 15:00N 37°60' E 023°33'3 5.5
2017-Apr-19 14:30N 37°57' E 023°35'0 0.0
2017-Apr-18 15:12N 37°58' E 023°35'1 3.7
2017-Apr-18 15:00N 37°57' E 023°35'1 1.4
2017-Apr-18 14:30N 37°57' E 023°36'0 0.0
2017-Apr-18 13:30N 37°57' E 023°36'0 0.0
2017-Apr-18 13:01N 37°57' E 023°36'0 0.0
2017-Apr-18 12:30N 37°57' E 023°36'0 0.0
2017-Apr-18 12:00N 37°57' E 023°36'0 0.0
2017-Apr-18 11:30N 37°57' E 023°36'0 0.0
2017-Apr-18 11:00N 37°57' E 023°36'0 0.0
2017-Apr-18 10:31N 37°57' E 023°36'0 0.0
2017-Apr-18 10:00N 37°57' E 023°36'0 0.0
2017-Apr-18 09:30N 37°57' E 023°36'0 0.0
2017-Apr-18 09:00N 37°57' E 023°36'0 0.0
2017-Apr-18 08:30N 37°57' E 023°36'1 1.1
2017-Apr-18 08:00N 37°57' E 023°35'1 1.8
2017-Apr-18 07:30N 37°58' E 023°35'0 0.0
2017-Apr-18 07:00N 37°58' E 023°35'0 0.0
2017-Apr-18 06:30N 37°58' E 023°35'0 0.2
2017-Apr-18 06:00N 37°58' E 023°35'2 4.2
2017-Apr-18 05:31N 37°59' E 023°33'2 3.0
2017-Apr-18 05:00N 38°01' E 023°33'2 3.0
2017-Apr-18 04:30N 38°02' E 023°35'0 0.1
2017-Apr-18 04:00N 38°02' E 023°35'0 0.0
2017-Apr-18 03:30N 38°02' E 023°35'0 0.0
2017-Apr-18 03:00N 38°02' E 023°35'0 0.0
2017-Apr-18 02:30N 38°02' E 023°35'0 0.1
2017-Apr-18 02:00N 38°02' E 023°35'0 0.1
2017-Apr-18 01:30N 38°02' E 023°35'0 0.1
2017-Apr-18 01:00N 38°02' E 023°35'0 0.0
2017-Apr-18 00:31N 38°02' E 023°35'0 0.1
2017-Apr-18 00:00N 38°02' E 023°35'0 0.1
2017-Apr-17 23:30N 38°02' E 023°35'0 0.0
2017-Apr-17 23:00N 38°02' E 023°35'0 0.2
2017-Apr-17 22:30N 38°02' E 023°35'1 1.5
2017-Apr-17 22:00N 38°02' E 023°36'0 0.0
2017-Apr-17 21:30N 38°02' E 023°36'0 0.0
2017-Apr-17 21:00N 38°02' E 023°36'0 0.0
2017-Apr-17 20:30N 38°02' E 023°36'0 0.0
2017-Apr-17 20:00N 38°02' E 023°36'0 0.0
2017-Apr-17 19:30N 38°02' E 023°36'0 0.0
2017-Apr-17 19:00N 38°02' E 023°36'0 0.0
2017-Apr-17 18:30N 38°02' E 023°36'0 0.0
2017-Apr-17 18:00N 38°02' E 023°36'0 0.1
2017-Apr-17 17:31N 38°02' E 023°36'3 5.7
2017-Apr-17 17:00N 37°60' E 023°33'2 4.8
2017-Apr-17 16:30N 37°57' E 023°35'  
Track history (hours):
 
Tides and Currents Weather Stations Pressure Air Temp Water Temp Dewpoint Dewpoint Depression Visibility Wind Speed Wind Dir Waves Ship Positions

Maria

Last reported at 2017-Apr-26 05:05 UTC. Time now 2017-Apr-26 06:07 UTC.
Position N 37°58' E 023°35'.

Length 74 m; draft 4.5 m.

Type: Ship. MMSI: 237493000.

Date/timePositionNaut miles runAvg speedWind from/ knotsBaromVisibWave heightAir tempDewpointWater temp
2017-Apr-26 05:05N 37°58' E 023°35'0 0.6
2017-Apr-26 05:00N 37°58' E 023°35'3 6.5
2017-Apr-26 04:30N 37°54' E 023°34'3 7.0
2017-Apr-26 04:00N 37°51' E 023°32'0 0.2
2017-Apr-26 03:30N 37°51' E 023°32'0 0.1
2017-Apr-26 03:00N 37°51' E 023°32'0 0.1
2017-Apr-26 02:30N 37°51' E 023°32'0 0.1
2017-Apr-26 02:00N 37°51' E 023°32'0 0.1
2017-Apr-26 01:30N 37°51' E 023°32'0 0.1
2017-Apr-26 01:00N 37°51' E 023°32'0 0.0
2017-Apr-26 00:30N 37°51' E 023°32'0 0.0
2017-Apr-26 00:00N 37°51' E 023°32'0 0.0
2017-Apr-25 23:30N 37°51' E 023°32'0 0.0
2017-Apr-25 23:00N 37°51' E 023°32'0 0.0
2017-Apr-25 22:30N 37°51' E 023°32'0 0.0
2017-Apr-25 22:00N 37°51' E 023°32'0 0.0
2017-Apr-25 21:30N 37°51' E 023°32'0 0.0
2017-Apr-25 21:00N 37°51' E 023°32'0 0.0
2017-Apr-25 20:30N 37°51' E 023°32'0 0.0
2017-Apr-25 20:00N 37°51' E 023°32'0 0.0
2017-Apr-25 19:30N 37°51' E 023°32'0 0.0
2017-Apr-25 19:00N 37°51' E 023°32'0 0.0
2017-Apr-25 18:30N 37°51' E 023°32'0 0.0
2017-Apr-25 18:00N 37°51' E 023°32'0 0.0
2017-Apr-25 17:30N 37°51' E 023°32'0 0.0
2017-Apr-25 17:00N 37°51' E 023°32'0 0.0
2017-Apr-25 16:30N 37°51' E 023°32'0 0.0
2017-Apr-25 16:00N 37°51' E 023°32'1 1.9
2017-Apr-25 15:31N 37°52' E 023°32'2 5.0
2017-Apr-25 15:00N 37°55' E 023°33'3 5.4
2017-Apr-25 14:30N 37°57' E 023°35'  
2017-Apr-22 05:07N 37°58' E 023°35'0 0.4
2017-Apr-22 05:00N 37°58' E 023°35'2 3.9
2017-Apr-22 04:30N 37°59' E 023°33'3 5.9
2017-Apr-22 04:01N 38°01' E 023°35'1 1.4
2017-Apr-22 03:28N 38°02' E 023°36'0 0.0
2017-Apr-22 03:00N 38°02' E 023°36'0 0.0
2017-Apr-22 02:30N 38°02' E 023°36'0 0.0
2017-Apr-22 02:00N 38°02' E 023°36'0 0.0
2017-Apr-22 01:28N 38°02' E 023°36'0 0.0
2017-Apr-22 01:00N 38°02' E 023°36'0 0.0
2017-Apr-22 00:30N 38°02' E 023°36'0 0.0
2017-Apr-22 00:00N 38°02' E 023°36'0 0.0
2017-Apr-21 23:30N 38°02' E 023°36'0 0.0
2017-Apr-21 23:00N 38°02' E 023°36'0 0.0
2017-Apr-21 22:30N 38°02' E 023°36'0 0.0
2017-Apr-21 22:00N 38°02' E 023°36'0 0.0
2017-Apr-21 21:30N 38°02' E 023°36'1 1.4
2017-Apr-21 21:00N 38°02' E 023°35'0 0.0
2017-Apr-21 20:31N 38°02' E 023°35'0 0.0
2017-Apr-21 20:01N 38°02' E 023°35'0 0.0
2017-Apr-21 19:31N 38°02' E 023°35'0 0.0
2017-Apr-21 19:01N 38°02' E 023°35'0 0.0
2017-Apr-21 18:31N 38°02' E 023°35'0 0.0
2017-Apr-21 18:01N 38°02' E 023°35'0 0.1
2017-Apr-21 17:31N 38°02' E 023°35'0 0.0
2017-Apr-21 17:00N 38°02' E 023°35'0 0.0
2017-Apr-21 16:31N 38°02' E 023°35'0 0.0
2017-Apr-21 16:01N 38°02' E 023°35'0 0.1
2017-Apr-21 15:31N 38°02' E 023°35'0 0.0
2017-Apr-21 15:00N 38°02' E 023°35'0 0.1
2017-Apr-21 14:30N 38°02' E 023°35'4 4.3
2017-Apr-21 13:31N 37°57' E 023°34'1 0.1
2017-Apr-21 01:48N 37°58' E 023°35'1 3.2
2017-Apr-21 01:30N 37°57' E 023°36'1 1.6
2017-Apr-21 01:00N 37°58' E 023°36'0 0.0
2017-Apr-21 00:30N 37°58' E 023°36'0 0.0
2017-Apr-21 00:00N 37°58' E 023°36'0 0.0
2017-Apr-20 23:30N 37°58' E 023°36'0 0.0
2017-Apr-20 23:00N 37°58' E 023°36'0 0.0
2017-Apr-20 22:30N 37°58' E 023°36'0 0.0
2017-Apr-20 22:00N 37°58' E 023°36'0 0.0
2017-Apr-20 21:30N 37°58' E 023°36'0 0.0
2017-Apr-20 21:00N 37°58' E 023°36'0 0.0
2017-Apr-20 20:30N 37°58' E 023°36'0 0.0
2017-Apr-20 20:00N 37°58' E 023°36'0 0.0
2017-Apr-20 19:30N 37°58' E 023°36'0 0.1
2017-Apr-20 19:00N 37°58' E 023°36'1 2.7
2017-Apr-20 18:30N 37°57' E 023°35'0 0.0
2017-Apr-20 08:51N 37°58' E 023°35'0 0.2
2017-Apr-20 08:30N 37°58' E 023°35'0 0.0
2017-Apr-20 08:00N 37°58' E 023°35'0 0.0
2017-Apr-20 07:30N 37°58' E 023°35'0 0.0
2017-Apr-20 07:00N 37°58' E 023°35'0 0.0
2017-Apr-20 06:30N 37°58' E 023°35'0 0.0
2017-Apr-20 06:00N 37°58' E 023°35'0 0.0
2017-Apr-20 05:30N 37°58' E 023°35'2 3.0
2017-Apr-20 05:00N 37°58' E 023°33'3 6.7
2017-Apr-20 04:30N 38°01' E 023°34'1 1.3
2017-Apr-20 04:00N 38°02' E 023°35'0 0.1
2017-Apr-20 03:30N 38°02' E 023°35'0 0.1
2017-Apr-20 03:00N 38°02' E 023°35'0 0.1
2017-Apr-20 02:30N 38°02' E 023°35'0 0.0
2017-Apr-20 02:00N 38°02' E 023°35'0 0.0
2017-Apr-20 01:30N 38°02' E 023°35'0 0.0
2017-Apr-20 01:00N 38°02' E 023°35'0 0.0
2017-Apr-20 00:30N 38°02' E 023°35'0 0.1
2017-Apr-20 00:00N 38°02' E 023°35'0 0.0
2017-Apr-19 23:30N 38°02' E 023°35'0 0.1
2017-Apr-19 23:00N 38°02' E 023°35'0 0.0
2017-Apr-19 22:30N 38°02' E 023°35'0 0.1
2017-Apr-19 22:00N 38°02' E 023°35'0 0.0
2017-Apr-19 21:30N 38°02' E 023°35'0 0.0
2017-Apr-19 21:00N 38°02' E 023°35'0 0.1
2017-Apr-19 20:30N 38°02' E 023°35'0 0.1
2017-Apr-19 20:00N 38°02' E 023°35'1 1.7
2017-Apr-19 19:30N 38°02' E 023°36'0 0.0
2017-Apr-19 19:00N 38°02' E 023°36'0 0.0
2017-Apr-19 18:30N 38°02' E 023°36'0 0.0
2017-Apr-19 18:00N 38°02' E 023°36'0 0.0
2017-Apr-19 17:30N 38°02' E 023°36'0 0.0
2017-Apr-19 17:01N 38°02' E 023°36'0 0.0
2017-Apr-19 16:31N 38°02' E 023°36'0 0.0
2017-Apr-19 16:00N 38°02' E 023°36'0 0.2
2017-Apr-19 15:30N 38°02' E 023°36'3 5.4
2017-Apr-19 15:00N 37°60' E 023°33'3 5.5
2017-Apr-19 14:30N 37°57' E 023°35'0 0.0
2017-Apr-18 15:12N 37°58' E 023°35'1 3.7
2017-Apr-18 15:00N 37°57' E 023°35'1 1.4
2017-Apr-18 14:30N 37°57' E 023°36'0 0.0
2017-Apr-18 13:30N 37°57' E 023°36'0 0.0
2017-Apr-18 13:01N 37°57' E 023°36'0 0.0
2017-Apr-18 12:30N 37°57' E 023°36'0 0.0
2017-Apr-18 12:00N 37°57' E 023°36'0 0.0
2017-Apr-18 11:30N 37°57' E 023°36'0 0.0
2017-Apr-18 11:00N 37°57' E 023°36'0 0.0
2017-Apr-18 10:31N 37°57' E 023°36'0 0.0
2017-Apr-18 10:00N 37°57' E 023°36'0 0.0
2017-Apr-18 09:30N 37°57' E 023°36'0 0.0
2017-Apr-18 09:00N 37°57' E 023°36'0 0.0
2017-Apr-18 08:30N 37°57' E 023°36'1 1.1
2017-Apr-18 08:00N 37°57' E 023°35'1 1.8
2017-Apr-18 07:30N 37°58' E 023°35'0 0.0
2017-Apr-18 07:00N 37°58' E 023°35'0 0.0
2017-Apr-18 06:30N 37°58' E 023°35'0 0.2
2017-Apr-18 06:00N 37°58' E 023°35'2 4.2
2017-Apr-18 05:31N 37°59' E 023°33'2 3.0
2017-Apr-18 05:00N 38°01' E 023°33'2 3.0
2017-Apr-18 04:30N 38°02' E 023°35'0 0.1
2017-Apr-18 04:00N 38°02' E 023°35'0 0.0
2017-Apr-18 03:30N 38°02' E 023°35'0 0.0
2017-Apr-18 03:00N 38°02' E 023°35'0 0.0
2017-Apr-18 02:30N 38°02' E 023°35'0 0.1
2017-Apr-18 02:00N 38°02' E 023°35'0 0.1
2017-Apr-18 01:30N 38°02' E 023°35'0 0.1
2017-Apr-18 01:00N 38°02' E 023°35'0 0.0
2017-Apr-18 00:31N 38°02' E 023°35'0 0.1
2017-Apr-18 00:00N 38°02' E 023°35'0 0.1
2017-Apr-17 23:30N 38°02' E 023°35'0 0.0
2017-Apr-17 23:00N 38°02' E 023°35'0 0.2
2017-Apr-17 22:30N 38°02' E 023°35'1 1.5
2017-Apr-17 22:00N 38°02' E 023°36'0 0.0
2017-Apr-17 21:30N 38°02' E 023°36'0 0.0
2017-Apr-17 21:00N 38°02' E 023°36'0 0.0
2017-Apr-17 20:30N 38°02' E 023°36'0 0.0
2017-Apr-17 20:00N 38°02' E 023°36'0 0.0
2017-Apr-17 19:30N 38°02' E 023°36'0 0.0
2017-Apr-17 19:00N 38°02' E 023°36'0 0.0
2017-Apr-17 18:30N 38°02' E 023°36'0 0.0
2017-Apr-17 18:00N 38°02' E 023°36'0 0.1
2017-Apr-17 17:31N 38°02' E 023°36'3 5.7
2017-Apr-17 17:00N 37°60' E 023°33'2 4.8
2017-Apr-17 16:30N 37°57' E 023°35'  

Dump ship's entire track history